METAR Data
IDs: Format: Raw Decoded Include TAF

Data at: 0230 UTC 24 Sep 2018

KCVH 240215Z AUTO 00000KT 10SM CLR 19/08 A2983 RMK A01
KCVH 240155Z AUTO 27005KT 10SM CLR 20/09 A2983 RMK A01
KCVH 240135Z AUTO 27005KT 10SM CLR 21/08 A2983 RMK A01
KCVH 240115Z AUTO 26007KT 10SM CLR 22/08 A2983 RMK A01
KCVH 240055Z AUTO 26010KT 10SM CLR 22/08 A2983 RMK A01
KCVH 240035Z AUTO 30009G19KT 270V340 10SM CLR 23/08 A2984 RMK A01
KCVH 240015Z AUTO 24016KT 10SM CLR 24/09 A2982 RMK A01
KCVH 232355Z AUTO 24014G22KT 10SM CLR 24/10 A2983 RMK A01
KCVH 232335Z AUTO 23018G24KT 10SM CLR 25/10 A2983 RMK A01
KCVH 232315Z AUTO 25017G23KT 10SM CLR 25/09 A2983 RMK A01
KCVH 232255Z AUTO 25017G24KT 10SM CLR 26/08 A2983 RMK A01
KCVH 232235Z AUTO 25017KT 10SM CLR 27/08 A2983 RMK A01
KCVH 232215Z AUTO 25014KT 10SM CLR 28/09 A2983 RMK A01
KCVH 232155Z AUTO 24014KT 10SM CLR 29/09 A2984 RMK A01
KCVH 232135Z AUTO 25014KT 10SM CLR 29/08 A2984 RMK A01
KCVH 232115Z AUTO 25012KT 10SM CLR 30/09 A2985 RMK A01
KCVH 232055Z AUTO VRB03KT 10SM CLR 29/09 A2986 RMK A01
KCVH 232035Z AUTO 28006KT 10SM CLR 29/08 A2987 RMK A01
KCVH 232015Z AUTO 31004KT 10SM CLR 29/07 A2988 RMK A01
KCVH 231955Z AUTO 29003KT 10SM CLR 28/08 A2989 RMK A01
KCVH 231935Z AUTO 00000KT 10SM CLR 27/10 A2989 RMK A01
KCVH 231915Z AUTO 00000KT 10SM CLR 26/09 A2990 RMK A01
KCVH 231855Z AUTO 00000KT 10SM CLR 24/08 A2991 RMK A01
KCVH 231835Z AUTO 00000KT 10SM CLR 23/09 A2992 RMK A01
KCVH 231815Z AUTO 00000KT 10SM CLR 22/09 A2992 RMK A01
KCVH 231755Z AUTO 00000KT 10SM CLR 20/08 A2993 RMK A01
KCVH 231735Z AUTO 00000KT 10SM CLR 18/08 A2994 RMK A01
KCVH 231715Z AUTO 00000KT 10SM CLR 17/10 A2994 RMK A01
KCVH 231655Z AUTO 00000KT 10SM CLR 16/10 A2994 RMK A01
KCVH 231635Z AUTO 00000KT 10SM CLR 15/10 A2994 RMK A01
KCVH 231615Z AUTO 00000KT 10SM CLR 13/10 A2994 RMK A01
KCVH 231555Z AUTO 00000KT 10SM CLR 12/10 A2994 RMK A01
KCVH 231535Z AUTO 00000KT 10SM CLR 11/09 A2994 RMK A01
KCVH 231515Z AUTO 00000KT 10SM CLR 10/08 A2994 RMK A01
KCVH 231455Z AUTO 00000KT 10SM CLR 09/08 A2993 RMK A01
KCVH 231435Z AUTO 00000KT 10SM CLR 08/07 A2992 RMK A01
KCVH 231415Z AUTO 00000KT 10SM CLR 07/06 A2992 RMK A01
KCVH 231355Z AUTO 00000KT 10SM CLR 07/06 A2991 RMK A01
KCVH 231335Z AUTO 00000KT 10SM CLR 07/06 A2991 RMK A01
KCVH 231315Z AUTO 00000KT 9SM CLR 07/06 A2990 RMK A01
KCVH 231255Z AUTO 00000KT 9SM CLR 07/06 A2990 RMK A01
KCVH 231235Z AUTO 00000KT 10SM CLR 08/07 A2991 RMK A01
KCVH 231215Z AUTO 00000KT 10SM CLR 08/07 A2990 RMK A01
KCVH 231155Z AUTO 00000KT 8SM CLR 08/07 A2991 RMK A01
KCVH 231135Z AUTO 00000KT 10SM CLR 09/07 A2991 RMK A01
KCVH 231115Z AUTO 00000KT 10SM CLR 09/08 A2991 RMK A01
KCVH 231055Z AUTO 00000KT 10SM CLR 09/08 A2991 RMK A01
KCVH 231035Z AUTO 00000KT 10SM CLR 09/08 A2991 RMK A01
KCVH 231015Z AUTO 00000KT 10SM CLR 10/08 A2991 RMK A01
KCVH 230955Z AUTO 00000KT 9SM CLR 10/08 A2992 RMK A01
KCVH 230935Z AUTO 00000KT 9SM CLR 10/09 A2992 RMK A01
KCVH 230915Z AUTO 00000KT 9SM CLR 10/09 A2991 RMK A01
KCVH 230855Z AUTO 00000KT 10SM CLR 11/09 A2992 RMK A01
KCVH 230835Z AUTO 00000KT 8SM CLR 10/09 A2992 RMK A01
KCVH 230815Z AUTO 00000KT 10SM CLR 11/09 A2992 RMK A01
KCVH 230755Z AUTO 00000KT 10SM CLR 11/09 A2992 RMK A01
KCVH 230735Z AUTO 00000KT 10SM CLR 11/09 A2992 RMK A01
KCVH 230715Z AUTO 00000KT 10SM CLR 11/09 A2992 RMK A01
KCVH 230655Z AUTO 00000KT 10SM CLR 12/09 A2992 RMK A01
KCVH 230635Z AUTO 00000KT 10SM CLR 12/09 A2992 RMK A01
KCVH 230615Z AUTO 00000KT 10SM CLR 12/10 A2992 RMK A01
KCVH 230555Z AUTO 23004KT 10SM CLR 12/10 A2993 RMK A01
KCVH 230535Z AUTO 21005KT 10SM CLR 13/10 A2992 RMK A01
KCVH 230515Z AUTO 20005KT 10SM CLR 13/10 A2992 RMK A01
KCVH 230455Z AUTO 00000KT 10SM CLR 13/10 A2993 RMK A01
KCVH 230435Z AUTO 20004KT 10SM CLR 13/10 A2993 RMK A01
KCVH 230415Z AUTO 00000KT 10SM CLR 14/10 A2993 RMK A01
KCVH 230355Z AUTO 19003KT 10SM CLR 14/10 A2992 RMK A01
KCVH 230335Z AUTO 22007KT 10SM CLR 14/10 A2992 RMK A01
KCVH 230315Z AUTO 22007KT 10SM CLR 15/10 A2992 RMK A01
KCVH 230255Z AUTO 22006KT 10SM CLR 16/09 A2991 RMK A01
KCVH 230235Z AUTO 21005KT 10SM CLR 16/10 A2991 RMK A01
KCVH 230215Z AUTO 21005KT 10SM CLR 16/10 A2990 RMK A01
KCVH 230155Z AUTO 00000KT 10SM CLR 17/10 A2990 RMK A01
KCVH 230135Z AUTO 23006KT 10SM CLR 18/11 A2990 RMK A01
KCVH 230115Z AUTO 25009KT 10SM CLR 19/11 A2990 RMK A01
KCVH 230055Z AUTO 26010KT 10SM CLR 20/11 A2990 RMK A01
KCVH 230035Z AUTO 26011KT 10SM CLR 20/11 A2990 RMK A01
KCVH 230015Z AUTO 26014KT 10SM CLR 21/11 A2990 RMK A01
KCVH 222355Z AUTO 26014KT 10SM CLR 22/11 A2989 RMK A01
KCVH 222335Z AUTO 25015KT 10SM CLR 23/12 A2989 RMK A01
KCVH 222315Z AUTO 26014KT 10SM CLR 24/12 A2989 RMK A01
KCVH 222255Z AUTO 26014KT 10SM CLR 25/12 A2989 RMK A01
KCVH 222235Z AUTO 25017KT 10SM CLR 25/11 A2989 RMK A01
KCVH 222215Z AUTO 26016KT 10SM CLR 26/11 A2990 RMK A01
KCVH 222155Z AUTO 25014KT 10SM CLR 27/11 A2990 RMK A01
KCVH 222135Z AUTO 24013KT 10SM CLR 27/12 A2991 RMK A01
KCVH 222115Z AUTO 25012KT 10SM CLR 28/12 A2991 RMK A01
KCVH 222055Z AUTO 25009KT 10SM CLR 29/13 A2992 RMK A01
KCVH 222035Z AUTO 23005KT 10SM CLR 28/12 A2993 RMK A01
KCVH 222015Z AUTO VRB05KT 10SM CLR 27/11 A2994 RMK A01
KCVH 221955Z AUTO 29004KT 10SM CLR 27/11 A2995 RMK A01
KCVH 221935Z AUTO 00000KT 10SM CLR 25/11 A2996 RMK A01
KCVH 221915Z AUTO 00000KT 10SM CLR 24/12 A2997 RMK A01
KCVH 221855Z AUTO 32004KT 10SM CLR 23/11 A2997 RMK A01
KCVH 221835Z AUTO 00000KT 10SM CLR 21/12 A2998 RMK A01
KCVH 221815Z AUTO 00000KT 10SM CLR 19/12 A2998 RMK A01
KCVH 221755Z AUTO 30003KT 10SM CLR 17/11 A2999 RMK A01
KCVH 221735Z AUTO 00000KT 9SM CLR 15/12 A3000 RMK A01
KCVH 221715Z AUTO 00000KT 8SM SCT002 14/13 A3000 RMK A01
KCVH 221655Z AUTO 00000KT 4SM BR OVC002 13/12 A3000 RMK A01
KCVH 221635Z AUTO 00000KT 1 1/4SM BR 12/12 A3000 RMK A01
KCVH 221615Z AUTO 00000KT 1/4SM FG 12/11 A3000 RMK A01
KCVH 221555Z AUTO 00000KT M1/4SM FG OVC001 12/11 A3000 RMK A01
KCVH 221535Z AUTO 00000KT M1/4SM FG OVC001 11/11 A3000 RMK A01
KCVH 221515Z AUTO 00000KT M1/4SM FG OVC001 11/11 A3000 RMK A01
KCVH 221455Z AUTO 00000KT M1/4SM FG OVC001 11/11 A3000 RMK A01
KCVH 221435Z AUTO 00000KT M1/4SM FG OVC001 11/11 A3000 RMK A01